Time;durP1;ratioP1;P1;durP2;ratioP2;P2;SDS_P1;SDS_P2;PMS_P1;PMS_P2;Temp;Humidity;BMP_temperature;BMP_pressure;BME280_temperature;BME280_humidity;BME280_pressure;Samples;Min_cycle;Max_cycle;Signal;HPM_P1;HPM_P2
2022/09/05 00:02:27;;;;;;;;;;;;;;;21.11;80.51;100602.88;4958428;28;19918;-76
2022/09/05 00:05:01;;;;;;;;;;;;;;;21.13;80.82;100604.03;4958377;28;19922;-76
2022/09/05 00:07:42;;;;;;;;;;;;;;;21.10;81.25;100610.56;4975369;28;19918;-76
2022/09/05 00:10:26;;;;;;;;;;;;;;;21.11;81.00;100600.03;4958276;28;19965;-77
2022/09/05 00:12:55;;;;;;;;;;;;;;;21.15;80.87;100603.63;4958687;28;19918;-77
2022/09/05 00:15:27;;;;;;;;;;;;;;;21.10;80.67;100601.28;4958801;28;19918;-76
2022/09/05 00:18:04;;;;;;;;;;;;;;;21.10;80.66;100601.28;4957539;28;20198;-76
2022/09/05 00:20:32;;;;;;;;;;;;;;;21.19;80.28;100593.84;4958194;28;19922;-77
2022/09/05 00:23:06;;;;;;;;;;;;;;;21.22;80.54;100586.53;4958155;28;19918;-76
2022/09/05 00:25:35;;;;;;;;;;;;;;;21.15;80.54;100592.31;4958108;28;19918;-76
2022/09/05 00:28:19;;;;;;;;;;;;;;;21.17;80.88;100595.50;4958081;28;19918;-76
2022/09/05 00:31:00;;;;;;;;;;;;;;;21.13;80.78;100594.75;4958900;28;19918;-77
2022/09/05 00:33:34;;;;;;;;;;;;;;;21.06;80.71;100595.66;4958205;28;19918;-76
2022/09/05 00:36:20;;;;;;;;;;;;;;;21.12;81.13;100601.63;4957997;28;19969;-76
2022/09/05 00:39:10;;;;;;;;;;;;;;;21.12;80.83;100593.16;4957886;28;19922;-76
2022/09/05 00:41:35;;;;;;;;;;;;;;;21.11;80.82;100594.38;4958832;28;19929;-76
2022/09/05 00:44:01;;;;;;;;;;;;;;;21.24;80.00;100597.41;4957942;28;19922;-76
2022/09/05 00:46:39;;;;;;;;;;;;;;;21.14;79.96;100585.03;4957878;28;19919;-77
2022/09/05 00:49:11;;;;;;;;;;;;;;;21.11;80.25;100586.69;4958172;28;20005;-76
2022/09/05 00:51:36;;;;;;;;;;;;;;;21.08;80.60;100587.53;4958292;28;19918;-76
2022/09/05 00:54:24;;;;;;;;;;;;;;;21.02;80.74;100588.44;4958617;28;19945;-75
2022/09/05 00:56:56;;;;;;;;;;;;;;;21.02;80.23;100594.09;4960473;28;19940;-77
2022/09/05 00:59:27;;;;;;;;;;;;;;;20.93;80.80;100588.94;4979078;28;20372;-77
2022/09/05 01:01:52;;;;;;;;;;;;;;;20.95;80.68;100589.34;4962217;28;19964;-77
2022/09/05 01:04:36;;;;;;;;;;;;;;;21.02;80.39;100585.59;4962436;28;19961;-76
2022/09/05 01:07:25;;;;;;;;;;;;;;;21.02;80.23;100585.59;4962082;28;19918;-77
2022/09/05 01:10:10;;;;;;;;;;;;;;;21.05;79.81;100587.59;4978845;28;20000;-75
2022/09/05 01:12:39;;;;;;;;;;;;;;;21.01;79.47;100587.63;4961386;28;20083;-77
2022/09/05 01:15:16;;;;;;;;;;;;;;;20.92;79.85;100579.66;4961386;28;19918;-76
2022/09/05 01:17:47;;;;;;;;;;;;;;;20.96;79.88;100584.47;4961941;28;19968;-77
2022/09/05 01:20:28;;;;;;;;;;;;;;;20.90;79.93;100584.16;4961879;28;19942;-75
2022/09/05 01:23:02;;;;;;;;;;;;;;;20.90;80.18;100587.78;4961843;28;19918;-75
2022/09/05 01:25:27;;;;;;;;;;;;;;;20.93;80.16;100584.13;4961452;28;19953;-76
2022/09/05 01:27:52;;;;;;;;;;;;;;;20.96;79.85;100581.66;4962028;28;20399;-76
2022/09/05 01:30:20;;;;;;;;;;;;;;;21.02;79.53;100591.25;4961722;28;20345;-74
2022/09/05 01:32:58;;;;;;;;;;;;;;;20.99;79.36;100594.97;4961065;28;19925;-77
2022/09/05 01:35:26;;;;;;;;;;;;;;;20.91;79.88;100594.22;4961027;28;19926;-77
2022/09/05 01:38:11;;;;;;;;;;;;;;;20.83;80.18;100592.75;4961030;28;19925;-76
2022/09/05 01:40:55;;;;;;;;;;;;;;;20.83;80.26;100590.72;4938595;29;19923;-76
2022/09/05 01:43:49;;;;;;;;;;;;;;;20.75;80.19;100586.34;4938519;29;19919;-77
2022/09/05 01:46:37;;;;;;;;;;;;;;;20.75;80.49;100582.72;4888413;29;19919;-76
2022/09/05 01:49:38;;;;;;;;;;;;;;;20.69;80.01;100581.59;4938110;29;19974;-76
2022/09/05 01:52:12;;;;;;;;;;;;;;;20.68;80.54;100577.97;4883707;29;19923;-77
2022/09/05 01:54:38;;;;;;;;;;;;;;;20.65;80.26;100576.78;4930569;29;19919;-77
2022/09/05 01:57:13;;;;;;;;;;;;;;;20.67;80.44;100574.34;4938278;29;20404;-77
2022/09/05 01:59:47;;;;;;;;;;;;;;;20.72;80.30;100570.25;4938275;29;19918;-77
2022/09/05 02:02:15;;;;;;;;;;;;;;;20.62;80.01;100571.97;4938197;29;19919;-76
2022/09/05 02:04:52;;;;;;;;;;;;;;;20.54;80.24;100564.78;4938154;29;19919;-76
2022/09/05 02:07:30;;;;;;;;;;;;;;;20.59;80.24;100572.81;4937037;29;19967;-76
2022/09/05 02:10:11;;;;;;;;;;;;;;;20.52;80.65;100572.09;4938688;29;20024;-77
2022/09/05 02:12:42;;;;;;;;;;;;;;;20.48;80.27;100577.00;4938823;29;20340;-76
2022/09/05 02:15:35;;;;;;;;;;;;;;;20.49;79.96;100575.75;4938297;29;19919;-77
2022/09/05 02:18:05;;;;;;;;;;;;;;;20.38;80.27;100584.31;4939280;29;19919;-76
2022/09/05 02:20:33;;;;;;;;;;;;;;;20.40;80.37;100582.69;4937913;29;19919;-76
2022/09/05 02:23:03;;;;;;;;;;;;;;;20.37;80.49;100580.69;4937612;29;19957;-78
2022/09/05 02:25:39;;;;;;;;;;;;;;;20.20;81.66;100576.06;4938384;29;20026;-76
2022/09/05 02:28:10;;;;;;;;;;;;;;;20.09;82.93;100573.34;4937722;29;19918;-77
2022/09/05 02:30:40;;;;;;;;;;;;;;;20.01;83.04;100571.78;4937989;29;20440;-76
2022/09/05 02:33:09;;;;;;;;;;;;;;;19.94;83.40;100573.88;4937635;29;20400;-76
2022/09/05 02:35:34;;;;;;;;;;;;;;;19.94;83.34;100565.41;4938493;29;19918;-76
2022/09/05 02:38:10;;;;;;;;;;;;;;;19.98;82.26;100572.63;4938157;29;20235;-76
2022/09/05 02:40:36;;;;;;;;;;;;;;;20.00;82.14;100569.38;4939131;29;20466;-77
2022/09/05 02:43:21;;;;;;;;;;;;;;;20.07;81.53;100569.31;4953450;29;19987;-76
2022/09/05 02:45:50;;;;;;;;;;;;;;;20.12;81.41;100568.84;4898759;29;19926;-76
2022/09/05 02:48:20;;;;;;;;;;;;;;;20.13;81.57;100573.28;4953330;29;19919;-77
2022/09/05 02:51:18;;;;;;;;;;;;;;;20.10;81.63;100562.84;4938949;29;20489;-76
2022/09/05 02:53:51;;;;;;;;;;;;;;;20.09;81.56;100566.88;4895452;29;19922;-77
2022/09/05 02:56:19;;;;;;;;;;;;;;;20.13;81.44;100567.63;4953793;29;19919;-76
2022/09/05 02:59:02;;;;;;;;;;;;;;;20.06;81.51;100559.25;4953762;29;19923;-77
2022/09/05 03:01:39;;;;;;;;;;;;;;;20.14;79.63;100564.41;4953692;29;20282;-75
2022/09/05 03:04:23;;;;;;;;;;;;;;;20.00;79.82;100558.09;4953055;29;19919;-76
2022/09/05 03:06:48;;;;;;;;;;;;;;;19.96;78.32;100562.97;4953017;29;19919;-74
2022/09/05 03:09:29;;;;;;;;;;;;;;;20.12;76.94;100566.03;4953519;29;19926;-75
2022/09/05 03:12:14;;;;;;;;;;;;;;;20.21;76.89;100569.16;4953114;29;20385;-75
2022/09/05 03:14:58;;;;;;;;;;;;;;;20.24;77.15;100568.34;4952601;29;19946;-76
2022/09/05 03:17:42;;;;;;;;;;;;;;;20.27;76.99;100572.34;4952809;29;19929;-75
2022/09/05 03:20:13;;;;;;;;;;;;;;;20.37;76.86;100565.78;4952465;28;20017;-75
2022/09/05 03:22:57;;;;;;;;;;;;;;;20.44;77.01;100570.53;4953273;29;19919;-75
2022/09/05 03:25:35;;;;;;;;;;;;;;;20.48;76.64;100572.13;4953534;29;20056;-75
2022/09/05 03:28:19;;;;;;;;;;;;;;;20.51;76.89;100579.78;4952645;29;19919;-74
2022/09/05 03:30:55;;;;;;;;;;;;;;;20.49;76.91;100584.25;4952544;29;19970;-76
2022/09/05 03:33:32;;;;;;;;;;;;;;;20.47;78.11;100583.88;4937450;29;19926;-74
2022/09/05 03:36:10;;;;;;;;;;;;;;;20.48;77.66;100577.00;4953311;29;19919;-77
2022/09/05 03:38:47;;;;;;;;;;;;;;;20.46;77.91;100579.41;4955361;29;19922;-76
2022/09/05 03:41:22;;;;;;;;;;;;;;;20.42;78.20;100577.41;4955546;29;19929;-75
2022/09/05 03:43:59;;;;;;;;;;;;;;;20.39;78.67;100575.41;4955453;29;19918;-77
2022/09/05 03:46:44;;;;;;;;;;;;;;;20.36;78.68;100576.28;4956298;29;19972;-75
2022/09/05 03:49:09;;;;;;;;;;;;;;;20.33;78.99;100581.97;4956025;29;19925;-75
2022/09/05 03:51:53;;;;;;;;;;;;;;;20.36;78.73;100581.94;4955860;29;19919;-77
2022/09/05 03:54:38;;;;;;;;;;;;;;;20.28;79.35;100585.25;4955337;29;19918;-77
2022/09/05 03:57:26;;;;;;;;;;;;;;;20.30;79.09;100580.78;4955846;29;20387;-75
2022/09/05 04:00:24;;;;;;;;;;;;;;;20.23;79.64;100583.66;4955562;29;19955;-76
2022/09/05 04:02:49;;;;;;;;;;;;;;;20.27;79.70;100581.63;4923822;29;20369;-74
2022/09/05 04:05:18;;;;;;;;;;;;;;;20.21;80.18;100591.78;4955467;29;20006;-78
2022/09/05 04:07:43;;;;;;;;;;;;;;;20.18;80.45;100595.44;4954878;29;19923;-77
2022/09/05 04:10:08;;;;;;;;;;;;;;;20.18;80.55;100598.25;4955159;29;19919;-74
2022/09/05 04:12:38;;;;;;;;;;;;;;;20.22;80.08;100599.03;4954966;29;19919;-76
2022/09/05 04:15:12;;;;;;;;;;;;;;;20.15;80.49;100610.41;4955052;29;19923;-77
2022/09/05 04:17:41;;;;;;;;;;;;;;;20.16;80.84;100606.34;4955521;29;20361;-78
2022/09/05 04:20:11;;;;;;;;;;;;;;;20.20;80.54;100606.31;4955203;29;20373;-76
2022/09/05 04:22:36;;;;;;;;;;;;;;;20.14;80.00;100608.81;4955097;29;19925;-77
2022/09/05 04:25:20;;;;;;;;;;;;;;;20.31;80.32;100607.03;4954878;29;19919;-76
2022/09/05 04:27:52;;;;;;;;;;;;;;;20.26;80.13;100616.75;4954802;29;19919;-77
2022/09/05 04:30:39;;;;;;;;;;;;;;;20.33;79.57;100616.66;4954199;28;19929;-77
2022/09/05 04:33:13;;;;;;;;;;;;;;;20.28;79.55;100631.25;4955175;29;19918;-75
2022/09/05 04:35:51;;;;;;;;;;;;;;;20.47;78.98;100629.09;4954457;29;19922;-77
2022/09/05 04:38:18;;;;;;;;;;;;;;;20.30;79.60;100622.38;4957114;28;19926;-77
2022/09/05 04:40:43;;;;;;;;;;;;;;;20.27;80.25;100626.03;4957937;28;19923;-76
2022/09/05 04:43:12;;;;;;;;;;;;;;;20.31;79.58;100627.59;4958086;28;19972;-77
2022/09/05 04:45:44;;;;;;;;;;;;;;;20.32;80.16;100626.38;4958075;28;19918;-77
2022/09/05 04:48:11;;;;;;;;;;;;;;;20.37;79.86;100628.75;4958091;28;19922;-77
2022/09/05 04:50:57;;;;;;;;;;;;;;;20.34;79.80;100635.22;4958206;28;19918;-78
2022/09/05 04:53:54;;;;;;;;;;;;;;;20.64;79.45;100636.56;4957718;28;19922;-75
2022/09/05 04:56:23;;;;;;;;;;;;;;;21.51;76.29;100651.25;4957716;28;19926;-77
2022/09/05 04:58:53;;;;;;;;;;;;;;;22.18;73.35;100647.38;4957942;28;19925;-78
2022/09/05 05:01:25;;;;;;;;;;;;;;;22.89;69.99;100659.44;4957636;28;19940;-77
2022/09/05 05:03:50;;;;;;;;;;;;;;;23.50;66.77;100661.78;4958010;28;19918;-77
2022/09/05 05:06:25;;;;;;;;;;;;;;;24.00;64.28;100665.50;4957679;28;20368;-77
2022/09/05 05:08:57;;;;;;;;;;;;;;;24.54;62.21;100668.59;4957710;28;19925;-77
2022/09/05 05:11:31;;;;;;;;;;;;;;;25.02;59.90;100661.16;4957556;28;19925;-78
2022/09/05 05:14:02;;;;;;;;;;;;;;;25.52;57.44;100668.25;4958188;28;20316;-78
2022/09/05 05:16:29;;;;;;;;;;;;;;;25.95;56.65;100675.47;4974712;28;20393;-77
2022/09/05 05:18:58;;;;;;;;;;;;;;;26.53;54.38;100674.38;4957298;28;19926;-77
2022/09/05 05:21:26;;;;;;;;;;;;;;;27.00;53.50;100674.25;4958670;28;20273;-77
2022/09/05 05:24:04;;;;;;;;;;;;;;;27.41;51.81;100689.47;4957583;28;20012;-77
2022/09/05 05:26:33;;;;;;;;;;;;;;;27.92;50.19;100689.13;4957533;28;20057;-77
2022/09/05 05:29:07;;;;;;;;;;;;;;;28.32;48.09;100702.59;4958004;28;20353;-76
2022/09/05 05:31:37;;;;;;;;;;;;;;;28.65;47.40;100692.16;4957385;28;19926;-76
2022/09/05 05:34:04;;;;;;;;;;;;;;;29.24;46.94;100697.72;4957494;28;19922;-75
2022/09/05 05:36:36;;;;;;;;;;;;;;;29.52;45.05;100697.69;4957969;28;19925;-76
2022/09/05 05:39:04;;;;;;;;;;;;;;;30.03;44.67;100706.28;4974828;28;20016;-75
2022/09/05 05:41:42;;;;;;;;;;;;;;;30.18;44.36;100701.44;4958095;28;20286;-75
2022/09/05 05:44:10;;;;;;;;;;;;;;;30.25;43.29;100701.06;4960826;28;20384;-77
2022/09/05 05:46:38;;;;;;;;;;;;;;;30.50;43.82;100710.50;4960900;28;19918;-77
2022/09/05 05:49:22;;;;;;;;;;;;;;;30.95;42.18;100714.34;4960807;28;19929;-77
2022/09/05 05:51:54;;;;;;;;;;;;;;;31.13;41.17;100705.56;4960721;28;19918;-77
2022/09/05 05:54:19;;;;;;;;;;;;;;;30.84;41.27;100714.91;4961520;28;19968;-77
2022/09/05 05:57:03;;;;;;;;;;;;;;;31.60;39.81;100715.31;4960658;28;19918;-76
2022/09/05 05:59:28;;;;;;;;;;;;;;;31.60;38.81;100726.03;4960589;28;19918;-77
2022/09/05 06:01:54;;;;;;;;;;;;;;;31.90;38.73;100723.94;4960594;28;19969;-76
2022/09/05 06:04:38;;;;;;;;;;;;;;;31.68;38.78;100722.25;4960567;28;19918;-79
2022/09/05 06:07:03;;;;;;;;;;;;;;;31.27;38.80;100721.28;4960438;28;19926;-76
2022/09/05 06:09:47;;;;;;;;;;;;;;;30.27;42.26;100714.97;4960940;28;19918;-76
2022/09/05 06:12:31;;;;;;;;;;;;;;;31.10;40.27;100734.47;4960263;28;19969;-76
2022/09/05 06:14:58;;;;;;;;;;;;;;;31.03;40.53;100732.78;4960349;28;20369;-77
2022/09/05 06:17:43;;;;;;;;;;;;;;;30.86;40.38;100738.19;4977650;28;19989;-79
2022/09/05 06:20:46;;;;;;;;;;;;;;;31.08;40.10;100737.84;4960749;28;19918;-77
2022/09/05 06:23:29;;;;;;;;;;;;;;;31.28;38.80;100732.28;4901939;29;19919;-77
2022/09/05 06:26:13;;;;;;;;;;;;;;;31.78;38.72;100740.19;4955359;28;19981;-77
2022/09/05 06:28:38;;;;;;;;;;;;;;;31.70;39.29;100734.06;4960043;28;20060;-77
2022/09/05 06:31:22;;;;;;;;;;;;;;;32.02;38.51;100729.38;4960470;28;19922;-77
2022/09/05 06:33:57;;;;;;;;;;;;;;;32.48;36.63;100745.25;4960489;28;19925;-77
2022/09/05 06:36:34;;;;;;;;;;;;;;;31.48;39.20;100737.34;4960173;28;20365;-76
2022/09/05 06:39:06;;;;;;;;;;;;;;;32.03;37.58;100750.31;4959872;28;19923;-77
2022/09/05 06:41:50;;;;;;;;;;;;;;;32.16;37.90;100739.25;4959776;28;19922;-77
2022/09/05 06:44:15;;;;;;;;;;;;;;;32.63;37.58;100748.88;4960072;28;19918;-78
2022/09/05 06:46:42;;;;;;;;;;;;;;;33.21;36.25;100747.00;4959795;28;19973;-77
2022/09/05 06:49:13;;;;;;;;;;;;;;;32.20;38.23;100739.06;4959702;28;19918;-77
2022/09/05 06:51:39;;;;;;;;;;;;;;;32.27;37.21;100744.41;4959637;28;19925;-77
2022/09/05 06:54:08;;;;;;;;;;;;;;;32.76;37.43;100746.44;4959281;28;20377;-76
2022/09/05 06:56:56;;;;;;;;;;;;;;;32.55;37.89;100747.72;4959783;28;19969;-78
2022/09/05 06:59:48;;;;;;;;;;;;;;;32.09;37.84;100736.81;4959502;28;19918;-77
2022/09/05 07:02:13;;;;;;;;;;;;;;;32.18;37.61;100741.66;4959358;28;19922;-76
2022/09/05 07:04:44;;;;;;;;;;;;;;;31.66;38.20;100736.34;4959238;28;19918;-76
2022/09/05 07:07:18;;;;;;;;;;;;;;;31.77;38.13;100741.50;4976933;28;20341;-76
2022/09/05 07:09:43;;;;;;;;;;;;;;;31.57;38.50;100739.31;4959070;28;19922;-77
2022/09/05 07:12:35;;;;;;;;;;;;;;;31.39;39.44;100739.50;4958956;28;19918;-78
2022/09/05 07:15:00;;;;;;;;;;;;;;;32.05;37.95;100747.72;4936625;28;19965;-76
2022/09/05 07:17:32;;;;;;;;;;;;;;;32.18;36.85;100751.09;4959058;28;19922;-77
2022/09/05 07:20:03;;;;;;;;;;;;;;;31.63;38.29;100748.81;4958808;28;19922;-76
2022/09/05 07:22:40;;;;;;;;;;;;;;;31.59;38.44;100750.31;4943123;28;19926;-78
2022/09/05 07:25:10;;;;;;;;;;;;;;;31.60;38.28;100754.78;4976767;28;19918;-77
2022/09/05 07:27:38;;;;;;;;;;;;;;;31.59;38.99;100750.31;4958672;28;19922;-77
2022/09/05 07:30:05;;;;;;;;;;;;;;;31.77;38.23;100758.75;4958460;28;19927;-79
2022/09/05 07:32:33;;;;;;;;;;;;;;;31.39;38.07;100756.75;4958923;28;20246;-78
2022/09/05 07:35:01;;;;;;;;;;;;;;;31.54;38.35;100761.25;4958452;28;20008;-76
2022/09/05 07:37:47;;;;;;;;;;;;;;;31.23;39.17;100770.28;4958664;28;19918;-77
2022/09/05 07:40:18;;;;;;;;;;;;;;;31.32;38.09;100757.13;4954741;29;19929;-77
2022/09/05 07:42:47;;;;;;;;;;;;;;;31.67;38.21;100758.06;4955284;29;20377;-76
2022/09/05 07:45:21;;;;;;;;;;;;;;;32.24;36.95;100763.47;4956912;28;19948;-77
2022/09/05 07:47:52;;;;;;;;;;;;;;;32.15;36.93;100763.59;4955605;29;20376;-77
2022/09/05 07:50:20;;;;;;;;;;;;;;;31.79;36.84;100770.53;4955352;29;19918;-79
2022/09/05 07:52:47;;;;;;;;;;;;;;;32.49;36.48;100770.69;4956769;28;19940;-78
2022/09/05 07:55:28;;;;;;;;;;;;;;;32.70;35.78;100780.13;4955311;29;20308;-78
2022/09/05 07:57:56;;;;;;;;;;;;;;;32.44;36.03;100773.47;4955270;29;19922;-78
2022/09/05 08:00:24;;;;;;;;;;;;;;;31.79;37.46;100774.22;4955153;29;19925;-78
2022/09/05 08:02:49;;;;;;;;;;;;;;;32.47;35.73;100769.59;4955172;29;19925;-77
2022/09/05 08:05:18;;;;;;;;;;;;;;;32.52;35.19;100766.00;4954858;28;20013;-77
2022/09/05 08:07:47;;;;;;;;;;;;;;;33.27;34.65;100773.78;4954989;29;19923;-77
2022/09/05 08:10:31;;;;;;;;;;;;;;;33.73;32.63;100780.84;4955119;29;20384;-77
2022/09/05 08:13:06;;;;;;;;;;;;;;;34.21;32.87;100780.22;4954979;29;19922;-77
2022/09/05 08:15:32;;;;;;;;;;;;;;;33.97;33.34;100783.44;4954820;29;19918;-78
2022/09/05 08:18:08;;;;;;;;;;;;;;;34.22;32.51;100782.59;4954980;29;19925;-77
2022/09/05 08:20:42;;;;;;;;;;;;;;;33.97;32.70;100787.13;4956818;28;19965;-76
2022/09/05 08:23:33;;;;;;;;;;;;;;;33.98;32.77;100793.69;4955163;29;19958;-76
2022/09/05 08:26:11;;;;;;;;;;;;;;;34.32;32.09;100791.88;4932737;29;19919;-77
2022/09/05 08:28:44;;;;;;;;;;;;;;;34.77;31.67;100786.38;4956361;29;20387;-78
2022/09/05 08:31:18;;;;;;;;;;;;;;;35.31;31.08;100792.91;4954713;29;19922;-78
2022/09/05 08:33:46;;;;;;;;;;;;;;;35.46;30.02;100795.63;4956135;28;19919;-78
2022/09/05 08:36:25;;;;;;;;;;;;;;;35.32;30.36;100797.41;4955222;29;19982;-76
2022/09/05 08:38:52;;;;;;;;;;;;;;;35.36;30.14;100797.94;4954350;29;19922;-75
2022/09/05 08:41:24;;;;;;;;;;;;;;;35.70;29.81;100792.25;4955622;28;19919;-78
2022/09/05 08:44:08;;;;;;;;;;;;;;;36.36;28.24;100790.66;4954922;29;19918;-78
2022/09/05 08:46:43;;;;;;;;;;;;;;;36.80;27.73;100791.91;4955790;28;20014;-76
2022/09/05 08:49:31;;;;;;;;;;;;;;;36.94;26.80;100787.94;4954697;29;19983;-77
2022/09/05 08:52:17;;;;;;;;;;;;;;;37.13;26.13;100796.81;4955218;29;19925;-76
2022/09/05 08:54:42;;;;;;;;;;;;;;;37.23;26.00;100786.50;4925040;29;19929;-77
2022/09/05 08:57:20;;;;;;;;;;;;;;;37.22;26.47;100795.72;4954290;29;19919;-77
2022/09/05 08:59:59;;;;;;;;;;;;;;;37.07;26.83;100786.56;4955507;28;19918;-77
2022/09/05 09:02:50;;;;;;;;;;;;;;;37.39;26.13;100784.81;4954426;29;19918;-76
2022/09/05 09:05:18;;;;;;;;;;;;;;;35.50;29.05;100784.59;4955047;29;19918;-75
2022/09/05 09:07:50;;;;;;;;;;;;;;;34.88;29.61;100783.53;4954699;29;19918;-76
2022/09/05 09:10:15;;;;;;;;;;;;;;;35.39;28.71;100784.53;4954350;29;19918;-76
2022/09/05 09:12:43;;;;;;;;;;;;;;;35.48;28.01;100786.41;4954301;29;19925;-76
2022/09/05 09:15:29;;;;;;;;;;;;;;;35.80;26.87;100779.09;4954354;29;19919;-77
2022/09/05 09:17:54;;;;;;;;;;;;;;;35.77;26.53;100785.16;4946219;28;19918;-76
2022/09/05 09:20:32;;;;;;;;;;;;;;;35.08;28.72;100779.72;4958345;29;19990;-76
2022/09/05 09:22:57;;;;;;;;;;;;;;;34.51;29.07;100792.25;4958739;29;20017;-76
2022/09/05 09:25:44;;;;;;;;;;;;;;;33.87;30.67;100786.47;4958741;29;20340;-77
2022/09/05 09:28:09;;;;;;;;;;;;;;;32.73;32.03;100784.88;4957891;29;19926;-77
2022/09/05 09:30:39;;;;;;;;;;;;;;;33.05;32.12;100782.97;4957770;29;19918;-76
2022/09/05 09:33:06;;;;;;;;;;;;;;;33.06;31.53;100781.66;4957675;28;20361;-77
2022/09/05 09:35:46;;;;;;;;;;;;;;;33.19;31.24;100783.41;4957724;29;19919;-78
2022/09/05 09:38:34;;;;;;;;;;;;;;;33.82;30.22;100790.09;4960134;28;19919;-77
2022/09/05 09:41:06;;;;;;;;;;;;;;;33.51;31.19;100781.44;4970909;28;19942;-77
2022/09/05 09:43:38;;;;;;;;;;;;;;;33.71;30.70;100784.22;4961695;28;19986;-79
2022/09/05 09:46:06;;;;;;;;;;;;;;;34.32;30.33;100783.19;4961404;28;19922;-79
2022/09/05 09:48:55;;;;;;;;;;;;;;;35.13;28.75;100776.03;4960676;28;19925;-79
2022/09/05 09:51:21;;;;;;;;;;;;;;;35.63;27.99;100778.28;4950095;28;19918;-78
2022/09/05 09:53:49;;;;;;;;;;;;;;;34.50;29.14;100782.03;4960552;28;19925;-77
2022/09/05 09:56:31;;;;;;;;;;;;;;;33.80;29.29;100784.06;4961071;28;20261;-77
2022/09/05 09:59:05;;;;;;;;;;;;;;;34.72;27.33;100770.59;4961388;28;20348;-78
2022/09/05 10:01:47;;;;;;;;;;;;;;;33.65;28.65;100779.72;4961155;28;19925;-76
2022/09/05 10:04:12;;;;;;;;;;;;;;;34.46;28.34;100767.81;4960911;28;19925;-76
2022/09/05 10:06:37;;;;;;;;;;;;;;;33.40;29.49;100763.94;4960900;28;20245;-78
2022/09/05 10:09:22;;;;;;;;;;;;;;;32.50;30.55;100768.59;4961017;28;19922;-77
2022/09/05 10:12:06;;;;;;;;;;;;;;;32.60;30.55;100761.41;4960313;28;19918;-77
2022/09/05 10:14:46;;;;;;;;;;;;;;;32.90;31.29;100755.53;4960238;28;19925;-78
2022/09/05 10:17:36;;;;;;;;;;;;;;;34.07;29.41;100753.09;4977370;28;19925;-77
2022/09/05 10:20:22;;;;;;;;;;;;;;;33.84;30.36;100757.88;4960976;28;19918;-75
2022/09/05 10:22:47;;;;;;;;;;;;;;;32.30;30.50;100752.84;4959633;28;20238;-77
2022/09/05 10:25:21;;;;;;;;;;;;;;;32.84;31.23;100747.56;4960029;28;19930;-77
2022/09/05 10:27:53;;;;;;;;;;;;;;;33.30;30.07;100761.25;4959785;28;19918;-78
2022/09/05 10:30:25;;;;;;;;;;;;;;;33.17;31.31;100757.94;4960280;28;19918;-76
2022/09/05 10:32:50;;;;;;;;;;;;;;;33.47;31.11;100754.91;4960247;28;20359;-77
2022/09/05 10:35:22;;;;;;;;;;;;;;;34.31;29.73;100753.53;4960525;28;19969;-78
2022/09/05 10:37:51;;;;;;;;;;;;;;;34.99;28.99;100745.22;4959918;28;19918;-76
2022/09/05 10:40:19;;;;;;;;;;;;;;;33.89;29.90;100749.25;4959304;28;19968;-76
2022/09/05 10:42:47;;;;;;;;;;;;;;;34.28;29.56;100745.88;4959675;28;20432;-77
2022/09/05 10:45:24;;;;;;;;;;;;;;;35.11;28.46;100741.09;4960014;28;20420;-78
2022/09/05 10:48:09;;;;;;;;;;;;;;;35.68;27.54;100745.66;4959808;28;19961;-77
2022/09/05 10:50:42;;;;;;;;;;;;;;;35.94;27.23;100754.91;4977038;28;19925;-79
2022/09/05 10:53:19;;;;;;;;;;;;;;;36.11;26.33;100742.50;4959936;28;19918;-76
2022/09/05 10:55:50;;;;;;;;;;;;;;;36.03;26.33;100738.59;4960497;28;19918;-78
2022/09/05 10:58:34;;;;;;;;;;;;;;;36.24;25.87;100736.97;4959869;28;20296;-78
2022/09/05 11:01:20;;;;;;;;;;;;;;;36.35;25.68;100736.94;4959539;28;20014;-79
2022/09/05 11:03:53;;;;;;;;;;;;;;;36.22;26.46;100739.59;4959447;28;19961;-78
2022/09/05 11:06:22;;;;;;;;;;;;;;;36.30;25.90;100734.84;4959427;28;19925;-76
2022/09/05 11:09:03;;;;;;;;;;;;;;;35.60;26.08;100724.38;4960247;28;19918;-79
2022/09/05 11:11:37;;;;;;;;;;;;;;;34.72;27.69;100709.09;4959331;28;19953;-80
2022/09/05 11:14:06;;;;;;;;;;;;;;;34.08;28.04;100715.03;4976376;28;19919;-74
2022/09/05 11:16:37;;;;;;;;;;;;;;;34.43;27.60;100713.94;4977137;28;20288;-78
2022/09/05 11:19:10;;;;;;;;;;;;;;;34.24;28.37;100704.91;4959424;28;20102;-78
2022/09/05 11:21:42;;;;;;;;;;;;;;;34.71;26.75;100701.75;4959096;28;19924;-77
2022/09/05 11:24:30;;;;;;;;;;;;;;;35.03;26.90;100696.63;4959081;28;19925;-77
2022/09/05 11:27:14;;;;;;;;;;;;;;;34.87;27.25;100698.91;4951019;28;20412;-78
2022/09/05 11:29:49;;;;;;;;;;;;;;;35.35;27.16;100694.31;4959024;28;19919;-78
2022/09/05 11:32:17;;;;;;;;;;;;;;;35.62;26.73;100687.00;4959465;28;19941;-77
2022/09/05 11:34:55;;;;;;;;;;;;;;;35.72;26.47;100691.22;4959507;28;20272;-78
2022/09/05 11:37:30;;;;;;;;;;;;;;;36.07;26.47;100687.00;4959148;28;20407;-77
2022/09/05 11:40:14;;;;;;;;;;;;;;;35.92;26.83;100693.03;4955050;28;19923;-76
2022/09/05 11:42:53;;;;;;;;;;;;;;;35.89;25.79;100686.19;4956396;29;19918;-76
2022/09/05 11:45:35;;;;;;;;;;;;;;;35.92;26.36;100685.13;4955492;29;19918;-77
2022/09/05 11:48:30;;;;;;;;;;;;;;;35.90;26.60;100684.88;4955508;29;19965;-77
2022/09/05 11:51:05;;;;;;;;;;;;;;;35.74;25.56;100682.78;4942511;29;20406;-78
2022/09/05 11:53:49;;;;;;;;;;;;;;;35.15;25.97;100680.88;4955300;29;20029;-78
2022/09/05 11:56:33;;;;;;;;;;;;;;;35.63;25.85;100674.09;4955355;29;19918;-78
2022/09/05 11:59:17;;;;;;;;;;;;;;;35.13;26.67;100680.63;4955852;29;20385;-76
2022/09/05 12:02:01;;;;;;;;;;;;;;;34.88;26.32;100671.59;4955721;29;19922;-77
2022/09/05 12:04:39;;;;;;;;;;;;;;;33.63;28.27;100673.50;4955704;29;20005;-76
2022/09/05 12:07:23;;;;;;;;;;;;;;;33.18;28.90;100658.63;4955409;29;19952;-78
2022/09/05 12:09:52;;;;;;;;;;;;;;;33.31;29.21;100656.13;4955189;29;19918;-79
2022/09/05 12:12:22;;;;;;;;;;;;;;;33.68;28.72;100658.31;4955582;29;19926;-77
2022/09/05 12:15:00;;;;;;;;;;;;;;;34.15;28.08;100656.03;4955073;29;19925;-78
2022/09/05 12:17:25;;;;;;;;;;;;;;;34.61;27.24;100657.84;4955014;29;19918;-77
2022/09/05 12:20:00;;;;;;;;;;;;;;;34.94;26.89;100651.38;4955002;29;19918;-76
2022/09/05 12:22:32;;;;;;;;;;;;;;;34.91;26.69;100640.88;4955192;29;20420;-77
2022/09/05 12:24:57;;;;;;;;;;;;;;;35.16;27.01;100642.00;4955516;29;19925;-78
2022/09/05 12:27:27;;;;;;;;;;;;;;;34.85;26.42;100631.38;4955669;29;19944;-78
2022/09/05 12:29:55;;;;;;;;;;;;;;;34.58;27.38;100632.88;4955188;29;19992;-77
2022/09/05 12:32:24;;;;;;;;;;;;;;;34.45;28.42;100626.78;4955024;29;20001;-77
2022/09/05 12:34:51;;;;;;;;;;;;;;;34.69;27.71;100629.25;4954808;29;20005;-78
2022/09/05 12:37:22;;;;;;;;;;;;;;;34.96;27.09;100624.88;4954762;29;19918;-77
2022/09/05 12:40:08;;;;;;;;;;;;;;;35.05;26.71;100624.59;4954420;29;19922;-75
2022/09/05 12:42:42;;;;;;;;;;;;;;;34.72;27.22;100617.41;4955232;29;19949;-74
2022/09/05 12:45:14;;;;;;;;;;;;;;;34.62;27.35;100622.66;4955502;29;19923;-75
2022/09/05 12:47:49;;;;;;;;;;;;;;;34.83;26.74;100617.44;4954671;29;19982;-77
2022/09/05 12:50:18;;;;;;;;;;;;;;;34.89;27.19;100609.59;4938917;29;19923;-77
2022/09/05 12:52:45;;;;;;;;;;;;;;;34.95;27.08;100606.75;4956755;28;19927;-76
2022/09/05 12:55:16;;;;;;;;;;;;;;;35.15;26.89;100599.91;4958566;29;19920;-74
2022/09/05 12:57:43;;;;;;;;;;;;;;;35.27;26.79;100592.03;4958538;29;20396;-75
2022/09/05 13:00:10;;;;;;;;;;;;;;;34.27;27.72;100599.13;4958745;29;19962;-76
2022/09/05 13:02:38;;;;;;;;;;;;;;;33.47;28.70;100585.50;4958387;29;20013;-78
2022/09/05 13:05:11;;;;;;;;;;;;;;;33.84;28.61;100576.84;4958388;29;19929;-77
2022/09/05 13:07:39;;;;;;;;;;;;;;;34.26;28.37;100571.56;4958371;29;19918;-78
2022/09/05 13:10:11;;;;;;;;;;;;;;;34.73;26.95;100569.91;4958286;29;19918;-77
2022/09/05 13:12:42;;;;;;;;;;;;;;;35.00;26.73;100570.47;4959051;29;19918;-75
2022/09/05 13:15:20;;;;;;;;;;;;;;;35.30;28.15;100567.84;4958238;29;20032;-78